createdAt,value
2023-05-13T00:00:06.703Z,3.5
2023-05-13T00:05:12.759Z,3.5
2023-05-13T00:10:19.031Z,3.4
2023-05-13T00:15:24.943Z,3.4
2023-05-13T00:20:31.201Z,3.4
2023-05-13T00:25:37.140Z,3.4
2023-05-13T00:30:43.471Z,3.4
2023-05-13T00:35:49.331Z,3.6
2023-05-13T00:40:55.641Z,3.6
2023-05-13T00:46:01.521Z,3.5
2023-05-13T00:51:07.590Z,3.5
2023-05-13T00:56:13.697Z,3.5
2023-05-13T01:01:19.841Z,3.5
2023-05-13T01:06:25.872Z,3.5
2023-05-13T01:11:32.009Z,3.4
2023-05-13T01:16:38.060Z,3.4
2023-05-13T01:21:44.174Z,3.4
2023-05-13T01:26:50.370Z,3.4
2023-05-13T01:31:56.360Z,3.6
2023-05-13T01:37:02.505Z,3.4
2023-05-13T01:42:08.527Z,3.5
2023-05-13T01:47:14.788Z,3.5
2023-05-13T01:52:20.735Z,3.4
2023-05-13T01:57:26.841Z,3.3
2023-05-13T02:02:32.984Z,3.4
2023-05-13T02:07:39.010Z,3.3
2023-05-13T02:12:45.159Z,3.3
2023-05-13T02:17:51.298Z,3.3
2023-05-13T02:22:57.284Z,3.2
2023-05-13T02:28:03.394Z,3.1
2023-05-13T02:33:09.517Z,3.2
2023-05-13T02:38:15.563Z,3
2023-05-13T02:43:21.672Z,2.9
2023-05-13T02:48:27.758Z,2.8
2023-05-13T02:53:33.850Z,2.9
2023-05-13T02:58:39.959Z,2.9
2023-05-13T03:03:46.198Z,3
2023-05-13T03:08:52.291Z,2.9
2023-05-13T03:13:58.221Z,2.8
2023-05-13T03:19:04.345Z,2.7
2023-05-13T03:24:10.443Z,2.8
2023-05-13T03:29:16.516Z,2.7
2023-05-13T03:34:22.632Z,2.7
2023-05-13T03:39:28.697Z,2.7
2023-05-13T03:44:34.787Z,2.7
2023-05-13T03:49:40.888Z,2.8
2023-05-13T03:54:46.979Z,2.8
2023-05-13T03:59:53.071Z,2.7
2023-05-13T04:04:59.193Z,2.7
2023-05-13T04:10:05.375Z,2.8
2023-05-13T04:15:11.397Z,2.9
2023-05-13T04:20:17.472Z,3.1
2023-05-13T04:25:23.673Z,3.2
2023-05-13T04:30:29.665Z,3.4
2023-05-13T04:35:35.758Z,3.7
2023-05-13T04:40:41.832Z,3.9
2023-05-13T04:45:48.184Z,4.2
2023-05-13T04:50:54.035Z,4.4
2023-05-13T04:56:00.148Z,4.4
2023-05-13T05:01:06.200Z,4.5
2023-05-13T05:06:12.297Z,4.9
2023-05-13T05:11:18.411Z,5
2023-05-13T05:16:24.485Z,5.1
2023-05-13T05:21:30.583Z,5.2
2023-05-13T05:26:36.680Z,5.1
2023-05-13T05:31:43.038Z,5.1
2023-05-13T05:36:48.853Z,4.9
2023-05-13T05:41:55.125Z,4.8
2023-05-13T05:47:01.182Z,4.7
2023-05-13T05:52:07.151Z,4.6
2023-05-13T05:57:13.249Z,4.7
2023-05-13T06:02:19.356Z,4.6
2023-05-13T06:07:25.424Z,4.7
2023-05-13T06:12:32.528Z,4.9
2023-05-13T06:17:37.781Z,5
2023-05-13T06:22:43.716Z,5.1
2023-05-13T06:27:49.801Z,5.2
2023-05-13T06:33:01.407Z,5.4
2023-05-13T06:38:01.996Z,5.4
2023-05-13T06:43:08.080Z,5.4
2023-05-13T06:48:14.218Z,5.3
2023-05-13T06:53:20.459Z,5
2023-05-13T06:58:26.410Z,4.8
2023-05-13T07:03:32.506Z,5.2
2023-05-13T07:08:38.571Z,5.7
2023-05-13T07:13:44.659Z,5.5
2023-05-13T07:18:50.973Z,6.2
2023-05-13T07:23:56.848Z,6.5
2023-05-13T07:29:02.922Z,6.8
2023-05-13T07:34:09.052Z,6.8
2023-05-13T07:39:15.137Z,6.2
2023-05-13T07:44:21.224Z,5.6
2023-05-13T07:49:27.292Z,5.1
2023-05-13T07:54:33.402Z,4.9
2023-05-13T07:59:39.540Z,5.1
2023-05-13T08:04:45.620Z,5
2023-05-13T08:09:51.679Z,5.1
2023-05-13T08:14:57.773Z,5.4
2023-05-13T08:20:04.198Z,6.2
2023-05-13T08:25:10.005Z,7.1
2023-05-13T08:30:16.067Z,6.9
2023-05-13T08:35:22.320Z,6.5
2023-05-13T08:40:28.244Z,6.5
2023-05-13T08:45:34.353Z,6.5
2023-05-13T08:50:40.439Z,6.4
2023-05-13T08:55:46.532Z,6.5
2023-05-13T09:00:52.675Z,6.9
2023-05-13T09:05:58.729Z,6.9
2023-05-13T09:11:04.827Z,6.5
2023-05-13T09:16:10.956Z,7.4
2023-05-13T09:21:17.045Z,7.9
2023-05-13T09:26:23.127Z,8.1
2023-05-13T09:31:29.349Z,8.3
2023-05-13T09:36:35.559Z,8.4
2023-05-13T09:41:41.426Z,8.6
2023-05-13T09:46:47.718Z,8.3
2023-05-13T09:51:53.587Z,8.6
2023-05-13T09:56:59.664Z,8.5
2023-05-13T10:02:05.785Z,8.3
2023-05-13T10:07:11.866Z,8.6
2023-05-13T10:12:17.958Z,8.5
2023-05-13T10:17:24.045Z,8.4
2023-05-13T10:22:30.382Z,8.1
2023-05-13T10:27:36.245Z,8
2023-05-13T10:32:42.371Z,8
2023-05-13T10:37:48.427Z,8
2023-05-13T10:42:54.518Z,8
2023-05-13T10:48:00.826Z,8.1
2023-05-13T10:53:06.712Z,7
2023-05-13T10:58:12.807Z,7.2
2023-05-13T11:03:19.122Z,8.5
2023-05-13T11:08:24.994Z,9.1
2023-05-13T11:13:31.080Z,9.7
2023-05-13T11:18:37.211Z,9.6
2023-05-13T11:23:43.274Z,9.3
2023-05-13T11:28:49.378Z,10
2023-05-13T11:33:55.465Z,9.5
2023-05-13T11:39:01.542Z,9.6
2023-05-13T11:44:07.658Z,9.8
2023-05-13T11:49:13.755Z,9.3
2023-05-13T11:54:19.833Z,9.7
2023-05-13T11:59:26.801Z,9.3
2023-05-13T12:04:32.091Z,9.1
2023-05-13T12:09:38.136Z,8.9
2023-05-13T12:14:44.242Z,8.8
2023-05-13T12:19:50.300Z,9
2023-05-13T12:24:56.414Z,8.9
2023-05-13T12:30:02.548Z,8.8
2023-05-13T12:35:08.608Z,8.7
2023-05-13T12:45:21.057Z,8.4
2023-05-13T12:50:27.022Z,8.1
2023-05-13T12:55:33.043Z,8
2023-05-13T13:00:39.172Z,6.4
2023-05-13T13:05:45.175Z,5.5
2023-05-13T13:10:51.266Z,5.9
2023-05-13T13:15:57.378Z,6.5
2023-05-13T13:21:03.505Z,7.1
2023-05-13T13:26:09.703Z,7.8
2023-05-13T13:31:15.682Z,8.7
2023-05-13T13:36:21.725Z,9
2023-05-13T13:41:27.845Z,9.3
2023-05-13T13:46:34.164Z,9.1
2023-05-13T13:51:40.016Z,8.6
2023-05-13T13:56:51.866Z,8.6
2023-05-13T14:01:57.881Z,8.7
2023-05-13T14:07:03.971Z,8.7
2023-05-13T14:12:10.167Z,8.8
2023-05-13T14:17:16.189Z,8.9
2023-05-13T14:22:22.273Z,9.2
2023-05-13T14:27:28.351Z,9.3
2023-05-13T14:32:34.419Z,9.3
2023-05-13T14:37:40.501Z,9.3
2023-05-13T14:42:46.626Z,9.1
2023-05-13T14:47:52.753Z,9
2023-05-13T14:52:58.924Z,8.9
2023-05-13T14:58:04.933Z,8.5
2023-05-13T15:03:11.031Z,8.5
2023-05-13T15:08:17.199Z,8.1
2023-05-13T15:13:23.178Z,8.1
2023-05-13T15:18:29.269Z,8
2023-05-13T15:23:35.361Z,6.2
2023-05-13T15:28:41.721Z,5.9
2023-05-13T15:33:47.535Z,5.7
2023-05-13T15:38:53.754Z,5.7
2023-05-13T15:43:59.769Z,6
2023-05-13T15:49:05.812Z,6.2
2023-05-13T15:54:12.076Z,6.6
2023-05-13T15:59:18.060Z,6.7
2023-05-13T16:04:24.319Z,7.3
2023-05-13T16:09:30.207Z,7.7
2023-05-13T16:14:36.301Z,7.8
2023-05-13T16:19:42.402Z,7.5
2023-05-13T16:24:48.498Z,7.5
2023-05-13T16:29:54.574Z,7.5
2023-05-13T16:35:00.785Z,7.6
2023-05-13T16:40:06.810Z,7.7
2023-05-13T16:45:13.100Z,7.6
2023-05-13T16:50:18.954Z,7.5
2023-05-13T16:55:25.044Z,7.5
2023-05-13T17:00:31.148Z,7.2
2023-05-13T17:05:37.375Z,7.1
2023-05-13T17:10:43.336Z,7.2
2023-05-13T17:15:49.433Z,7.1
2023-05-13T17:20:55.535Z,7
2023-05-13T17:26:01.628Z,6.9
2023-05-13T17:31:07.892Z,6.6
2023-05-13T17:36:14.030Z,6.6
2023-05-13T17:41:20.024Z,6.6
2023-05-13T17:46:26.000Z,6.4
2023-05-13T17:51:32.097Z,5.7
2023-05-13T17:56:38.187Z,5.5
2023-05-13T18:01:44.299Z,5.3
2023-05-13T18:06:50.440Z,5.3
2023-05-13T18:11:56.484Z,5.4
2023-05-13T18:17:02.571Z,5.6
2023-05-13T18:22:08.664Z,5.4
2023-05-13T18:27:15.800Z,5.2
2023-05-13T18:32:20.935Z,5.1
2023-05-13T18:37:27.053Z,5
2023-05-13T18:42:33.047Z,5
2023-05-13T18:47:39.192Z,5
2023-05-13T18:52:45.223Z,4.9
2023-05-13T18:57:51.315Z,4.7
2023-05-13T19:02:57.558Z,4.7
2023-05-13T19:08:03.533Z,4.6
2023-05-13T19:13:09.600Z,4.5
2023-05-13T19:18:15.738Z,4.4
2023-05-13T19:23:22.051Z,4.4
2023-05-13T19:28:28.019Z,4.3
2023-05-13T19:33:33.972Z,4.3
2023-05-13T19:38:40.076Z,4.2
2023-05-13T19:43:46.277Z,4.3
2023-05-13T19:48:52.243Z,4.3
2023-05-13T19:53:58.366Z,4.3
2023-05-13T19:59:04.469Z,4.4
2023-05-13T20:04:10.600Z,4.3
2023-05-13T20:09:16.768Z,4.3
2023-05-13T20:14:22.730Z,4.3
2023-05-13T20:19:28.846Z,4.3
2023-05-13T20:24:34.937Z,4.3
2023-05-13T20:29:41.012Z,4.4
2023-05-13T20:34:47.226Z,4.4
2023-05-13T20:39:53.203Z,4.4
2023-05-13T20:44:59.306Z,4.4
2023-05-13T20:50:05.406Z,4.4
2023-05-13T20:55:11.510Z,4.6
2023-05-13T21:00:17.772Z,4.7
2023-05-13T21:05:23.886Z,4.5
2023-05-13T21:10:29.937Z,4.5
2023-05-13T21:15:36.110Z,4.6
2023-05-13T21:20:41.951Z,4.5
2023-05-13T21:25:48.034Z,4.5
2023-05-13T21:30:54.449Z,4.5
2023-05-13T21:36:00.243Z,4.5
2023-05-13T21:41:06.326Z,4.5
2023-05-13T21:46:12.464Z,4.5
2023-05-13T21:51:18.504Z,4.5
2023-05-13T21:56:24.629Z,4.4
2023-05-13T22:01:30.854Z,4.3
2023-05-13T22:06:36.834Z,4.6
2023-05-13T22:11:43.152Z,4.5
2023-05-13T22:17:01.186Z,4.4
2023-05-13T22:21:55.113Z,4.3
2023-05-13T22:27:01.173Z,4.3
2023-05-13T22:32:07.511Z,4.4
2023-05-13T22:37:13.642Z,4.5
2023-05-13T22:42:19.587Z,4.6
2023-05-13T22:47:25.597Z,4.4
2023-05-13T22:52:31.682Z,4.4
2023-05-13T22:57:37.771Z,4.4
2023-05-13T23:02:43.896Z,4.3
2023-05-13T23:07:49.961Z,4.4
2023-05-13T23:12:56.064Z,4.4
2023-05-13T23:18:02.164Z,4.3
2023-05-13T23:23:08.239Z,4.4
2023-05-13T23:28:19.816Z,4.4
2023-05-13T23:33:20.409Z,4.3
2023-05-13T23:38:26.493Z,4.4
2023-05-13T23:43:32.606Z,4.4
2023-05-13T23:48:38.825Z,4.4
2023-05-13T23:53:44.813Z,4.4
2023-05-13T23:58:50.923Z,4.5
